Tiempo atmosférico en la estación meteorológica de Trujillo, Cáceres (503 m.)



Fecha
DESCASC
Temp. máxima en grados centígrados (hora)
DESCASC
Temp. mínima en grados centígrados (hora)
DESCASC
Temp. media en grados centígrados
DESCASC
Racha de viento máxima en m/sg (hora)
DESCASC
Velocidad máxima media en intervalos de 10 minutos(hora)
DESCASC
Precipitaciones diarias en mm
DESCASC
Precipitaciones de 00:00 a 06:00 en mm
DESCASC
Precipitaciones de 06:00 a 12:00 en mm
DESCASC
Precipitaciones de 12:00 a 18:00 en mm
DESCASC
Precipitaciones de 18:00 a 24:00 en mm
DESCASC
17-02-2019 16 (16:10) 2.3 (07:20) 9.1 6.67 (15:00) 4.17 (15:00) 0 0 0 0 0
16-02-2019 18.2 (16:00) 5.6 (08:20) 11.9 6.67 (07:30) 4.17 (07:20) 0 0 0 0 0
15-02-2019 18.1 (16:30) 3.3 (07:40) 10.7 5.28 (23:50) 3.61 (23:40) 0 0 0 0 0
14-02-2019 17.8 (15:40) 4.3 (00:00) 11 7.5 (15:20) 4.17 (12:50) 0 0 0 0 0
13-02-2019 17.4 (17:00) 3.6 (00:00) 10.5 3.06 (14:30) 1.94 (22:50) 0 0 0 0 0
12-02-2019 15.6 (16:50) 1.8 (00:00) 8.7 4.44 (14:00) 2.78 (05:50) 0 0 0 0 0
11-02-2019 13.6 (17:20) 4.4 (00:00) 9 5.83 (00:10) 3.33 (00:30) 0.1 0 0 0.1 0
10-02-2019 12.8 (15:10) 5.5 (00:00) 9.2 8.89 (12:20) 5.28 (12:20) 0.5 0 0 0 0.5
09-02-2019 13.4 (16:10) 2.9 (00:00) 8.1 3.89 (13:30) 2.22 (11:00) 0 0 0 0 0
08-02-2019 15.9 (15:50) 2.8 (00:00) 9.3 5.28 (16:50) 3.33 (17:50) 0 0 0 0 0
07-02-2019 15.4 (16:40) 3.3 (00:00) 9.3 5.83 (13:00) 3.33 (16:10) 0 0 0 0 0
06-02-2019 16.9 (14:50) 3.9 (00:00) 10.4 4.44 (15:10) 3.06 (16:30) 0 0 0 0 0
05-02-2019 17.1 (16:00) 0.5 (00:00) 8.8 3.06 (13:40) 1.94 (08:20) 0 0 0 0 0
04-02-2019 12.1 (16:20) -1.4 (-00:0) 5.4 4.17 (15:30) 2.22 (16:30) 0 0 0 0 0
03-02-2019 10.5 (15:40) -2.1 (-00:0) 4.2 11.11 (01:30) 7.78 (01:40) 0 0 0 0 0
02-02-2019 9.6 (16:40) 1.3 (00:00) 5.5 13.33 (14:20) 7.78 (15:10) 0 0 0 0 0
01-02-2019 11.8 (01:40) 3.3 (00:00) 7.6 18.89 (13:50) 12.5 (15:30) 8.7 7.3 0.1 1.3 0
31-01-2019 12.7 (13:50) 9.8 (00:00) 11.3 12.5 (15:10) 7.78 (15:10) 5.2 0.2 1.5 0.7 2.8
30-01-2019 10.2 (23:50) 3.4 (00:00) 6.8 10.83 (23:59) 6.94 (23:50) 1.5 0 0 0.7 0.8
29-01-2019 11.6 (16:40) 3.6 (00:00) 7.6 13.61 (18:20) 8.33 (18:20) 0 0 0 0 0
28-01-2019 13.1 (13:50) 2.7 (00:00) 7.9 13.33 (13:20) 8.89 (15:10) 0 0 0 0 0
27-01-2019 12.3 (15:10) 2.6 (00:00) 7.5 11.94 (13:30) 8.61 (13:40) 0 0 0 0 0
26-01-2019 17.1 (15:50) 2.4 (00:00) 9.8 3.89 (15:10) 2.78 (21:50) 0 0 0 0 0
25-01-2019 16.8 (14:40) 3.5 (00:00) 10.1 5 (13:50) 2.5 (15:00) 0 0 0 0 0
24-01-2019 17.3 (15:40) 7.3 (00:00) 12.3 13.61 (04:50) 9.17 (04:50) 0 0 0 0 0
23-01-2019 13.5 (14:40) 4.4 (00:00) 9 13.33 (13:50) 9.17 (14:00) 0 0 0 0 0
22-01-2019 10 (14:30) 0.9 (00:00) 5.4 11.11 (14:40) 7.5 (14:10) 0.1 0 0 0.1 0
21-01-2019 11.8 (16:50) 0 (00:00) 5.9 4.72 (16:20) 2.78 (16:30) 0 0 0 0 0
20-01-2019 12.3 (15:40) 4.9 (00:00) 8.6 9.44 (02:50) 6.11 (02:50) 7.5 7.5 0 0 0
19-01-2019 9.3 (23:59) 0.5 (00:00) 4.9 8.89 (16:40) 5.83 (16:40) 2.8 0 0.4 0.9 1.5

Gráficas

Temp. máximas Temp. mínimas Temp. medias Precipitaciones Rachas de viento máximas Velocidades máximas media en intervalos de 10 minutos

Datos horarios

Fecha y hora oficial Temperatura (ºC) Velocidad del viento (km/h) Dirección del viento Racha (km/h) Dirección de racha Precipitación (mm) Presión (hPa) Tendencia (hPa) Humedad (%)
2019-02-17 23:00:00 11 14 Sudeste 21 Sudeste 0 -- -- 48
2019-02-17 22:00:00 11.2 8 Sudeste 16 Sudeste 0 -- -- 48
2019-02-17 21:00:00 10.5 0 Calma 11 Este 0 -- -- 45
2019-02-17 20:00:00 11.2 9 Este 12 Este 0 -- -- 42
2019-02-17 19:00:00 12.7 6 Este 10 Sudeste 0 -- -- 39
2019-02-17 18:00:00 15.3 5 Sudeste 19 Este 0 -- -- 35
2019-02-17 17:00:00 15.5 10 Sudeste 19 Sur 0 -- -- 34
2019-02-17 16:00:00 15.8 9 Sudeste 23 Sudeste 0 -- -- 34
2019-02-17 15:00:00 15.4 15 Sudeste 24 Sudeste 0 -- -- 36
2019-02-17 14:00:00 14.9 9 Sudeste 22 Sudeste 0 -- -- 37
2019-02-17 13:00:00 14.6 11 Sudeste 20 Sudeste 0 -- -- 41
2019-02-17 12:00:00 13.7 4 Sudoeste 11 Sudoeste 0 -- -- 44
2019-02-17 11:00:00 12.6 4 Este 12 Sudeste 0 -- -- 46
2019-02-17 10:00:00 9.9 0 Calma 7 Este 0 -- -- 60
2019-02-17 09:00:00 5.5 4 Sudeste 8 Sudeste 0 -- -- 73
2019-02-17 08:00:00 2.5 4 Sudeste 7 Sudeste 0 -- -- 81
2019-02-17 07:00:00 2.7 0 Calma 4 Este 0 -- -- 78
2019-02-17 06:00:00 3.4 0 Calma 4 Sudoeste 0 -- -- 76
2019-02-17 05:00:00 4.8 0 Calma 6 Norte 0 -- -- 71
2019-02-17 04:00:00 5.7 4 Nordeste 12 Nordeste 0 -- -- 68
2019-02-17 03:00:00 7.2 3 Sur 10 Sudeste 0 -- -- 64
2019-02-17 02:00:00 6.1 4 Sudeste 7 Este 0 -- -- 66
2019-02-17 01:00:00 6.7 0 Calma 6 Noroeste 0 -- -- 63
2019-02-17 00:00:00 7.9 0 Calma 6 Este 0 -- -- 59
2019-02-16 23:00:00 10.6 7 Este 14 Nordeste 0 -- -- 54
2019-02-16 22:00:00 9.4 8 Nordeste 12 Nordeste 0 -- -- 61
2019-02-16 21:00:00 9.8 0 Calma 9 Nordeste 0 -- -- 57
2019-02-16 20:00:00 11.3 7 Nordeste 12 Nordeste 0 -- -- 52
2019-02-16 19:00:00 13.4 8 Nordeste 16 Norte 0 -- -- 48
2019-02-16 18:00:00 15.7 7 Norte 15 Norte 0 -- -- 44
2019-02-16 17:00:00 16.8 7 Nordeste 19 Nordeste 0 -- -- 40
2019-02-16 16:00:00 17.8 6 Norte 17 Norte 0 -- -- 38
2019-02-16 15:00:00 17.1 8 Noroeste 13 Noroeste 0 -- -- 40
2019-02-16 14:00:00 16.9 4 Norte 12 Nordeste 0 -- -- 41
2019-02-16 13:00:00 15.8 6 Nordeste 15 Nordeste 0 -- -- 43
2019-02-16 12:00:00 14.7 6 Nordeste 16 Norte 0 -- -- 47
2019-02-16 11:00:00 11.9 9 Nordeste 18 Nordeste 0 -- -- 57
2019-02-16 10:00:00 9.3 9 Nordeste 20 Nordeste 0 -- -- 63
2019-02-16 09:00:00 7.6 12 Nordeste 17 Nordeste 0 -- -- 67
2019-02-16 08:00:00 5.9 11 Nordeste 24 Nordeste 0 -- -- 71
2019-02-16 07:00:00 6.6 14 Nordeste 21 Norte 0 -- -- 66
2019-02-16 06:00:00 7.7 11 Nordeste 22 Nordeste 0 -- -- 61
2019-02-16 05:00:00 8.4 11 Nordeste 20 Nordeste 0 -- -- 58
2019-02-16 04:00:00 8.6 10 Nordeste 18 Nordeste 0 -- -- 60
2019-02-16 03:00:00 7 6 Nordeste 11 Norte 0 -- -- 62
2019-02-16 02:00:00 8.1 6 Nordeste 17 Nordeste 0 -- -- 59
2019-02-16 01:00:00 8.8 8 Nordeste 17 Nordeste 0 -- -- 57
2019-02-16 00:00:00 9.5 12 Nordeste 19 Nordeste 0 -- -- 58
2019-02-15 23:00:00 8.5 5 Nordeste 11 Norte 0 -- -- 61
2019-02-15 22:00:00 9.5 8 Norte 14 Norte 0 -- -- 57
2019-02-15 21:00:00 10.1 6 Nordeste 10 Norte 0 -- -- 54
2019-02-15 20:00:00 11.2 6 Nordeste 16 Nordeste 0 -- -- 49
2019-02-15 19:00:00 13.1 5 Nordeste 12 Norte 0 -- -- 44
2019-02-15 18:00:00 15.9 6 Nordeste 13 Norte 0 -- -- 40
2019-02-15 17:00:00 17.7 5 Norte 13 Norte 0 -- -- 37
2019-02-15 16:00:00 17.7 7 Noroeste 13 Noroeste 0 -- -- 38
2019-02-15 15:00:00 17.5 3 Noroeste 13 Noroeste 0 -- -- 40
2019-02-15 14:00:00 16.8 3 Noroeste 13 Noroeste 0 -- -- 40
2019-02-15 13:00:00 15.1 4 Noroeste 10 Noroeste 0 -- -- 44
2019-02-15 12:00:00 13.3 4 Noroeste 10 Noroeste 0 -- -- 51
2019-02-15 11:00:00 11.3 4 Noroeste 8 Noroeste 0 -- -- 59
2019-02-15 10:00:00 8.6 0 Calma 4 Noroeste 0 -- -- 68
2019-02-15 09:00:00 6.1 3 Sudeste 7 Sudeste 0 -- -- 74
2019-02-15 08:00:00 3.9 4 Sur 8 Sudeste 0 -- -- 76
2019-02-15 07:00:00 4.6 0 Calma 5 Norte 0 -- -- 74
2019-02-15 06:00:00 5.4 0 Calma 7 Sudeste 0 -- -- 70
2019-02-15 05:00:00 6 4 Sudeste 13 Sudeste 0 -- -- 67
2019-02-15 04:00:00 6.9 0 Calma 11 Este 0 -- -- 62
2019-02-15 03:00:00 6.1 3 Sudeste 9 Este 0 -- -- 67
2019-02-15 02:00:00 5.7 2 Sudeste 6 Sudeste 0 -- -- 69
2019-02-15 01:00:00 6.6 2 Sur 9 Este 0 -- -- 64
2019-02-15 00:00:00 9.1 7 Nordeste 12 Nordeste 0 -- -- 59
2019-02-14 23:00:00 8.8 8 Nordeste 13 Nordeste 0 -- -- 60
2019-02-14 22:00:00 8.5 9 Nordeste 15 Nordeste 0 -- -- 61
2019-02-14 21:00:00 9.4 5 Nordeste 13 Nordeste 0 -- -- 57
2019-02-14 20:00:00 10.6 9 Nordeste 12 Nordeste 0 -- -- 53
2019-02-14 19:00:00 13.5 5 Nordeste 18 Sudeste 0 -- -- 41
2019-02-14 18:00:00 16.3 10 Sudeste 20 Sudeste 0 -- -- 33
2019-02-14 17:00:00 16.9 13 Sudeste 22 Sudeste 0 -- -- 29
2019-02-14 16:00:00 17.2 13 Sudeste 27 Sudeste 0 -- -- 28
2019-02-14 15:00:00 17.4 12 Sudeste 22 Este 0 -- -- 28
2019-02-14 14:00:00 16.7 13 Sudeste 22 Sudeste 0 -- -- 31
2019-02-14 13:00:00 15.3 12 Sudeste 24 Sudeste 0 -- -- 34
2019-02-14 12:00:00 14.3 5 Nordeste 12 Nordeste 0 -- -- 47
2019-02-14 11:00:00 11.6 8 Nordeste 13 Nordeste 0 -- -- 56
2019-02-14 10:00:00 8.6 0 Calma 7 Nordeste 0 -- -- 65
2019-02-14 09:00:00 5.4 2 Nordeste 7 Nordeste 0 -- -- 70
2019-02-14 08:00:00 4.9 3 Nordeste 14 Nordeste 0 -- -- 68
2019-02-14 07:00:00 5.6 3 Nordeste 12 Nordeste 0 -- -- 65
2019-02-14 06:00:00 7.6 4 Nordeste 13 Sudeste 0 -- -- 58
2019-02-14 05:00:00 8.6 8 Sudeste 11 Sudeste 0 -- -- 60
2019-02-14 04:00:00 8.6 6 Este 9 Este 0 -- -- 62
2019-02-14 03:00:00 7.2 3 Este 7 Nordeste 0 -- -- 66
2019-02-14 02:00:00 8.1 2 Norte 6 Norte 0 -- -- 63
2019-02-14 01:00:00 9.6 5 Este 8 Este 0 -- -- 60
2019-02-14 00:00:00 9 0 Calma 4 Este 0 -- -- 60
2019-02-13 23:00:00 10 5 Este 11 Sudeste 0 -- -- 59
2019-02-13 22:00:00 10.3 6 Nordeste 9 Nordeste 0 -- -- 55
2019-02-13 21:00:00 10.7 6 Nordeste 9 Nordeste 0 -- -- 52
2019-02-13 20:00:00 11.5 6 Nordeste 9 Nordeste 0 -- -- 47
2019-02-13 19:00:00 14.4 3 Nordeste 8 Nordeste 0 -- -- 42
2019-02-13 18:00:00 17 2 Nordeste 10 Sudoeste 0 -- -- 37
2019-02-13 17:00:00 17.3 6 Oeste 11 Oeste 0 -- -- 38
2019-02-13 16:00:00 16.9 4 Noroeste 10 Noroeste 0 -- -- 37
2019-02-13 15:00:00 17.2 0 Calma 11 Sudoeste -- -- -- 37
2019-02-13 14:00:00 15.8 3 Noroeste 9 Sudoeste 0 -- -- 38
2019-02-13 13:00:00 15.1 0 Calma 10 Sudoeste 0 -- -- 40
2019-02-13 12:00:00 13.2 4 Sudoeste -- -- -- -- -- 44
2019-02-13 11:00:00 12.3 0 Calma 5 Sudeste 0 -- -- 51
2019-02-13 10:00:00 8.6 0 Calma 3 Sudeste 0 -- -- 62
2019-02-13 09:00:00 5.3 2 Sudeste 4 Sudeste 0 -- -- 71
2019-02-13 08:00:00 3.9 0 Calma 4 Sur 0 -- -- 72
2019-02-13 07:00:00 3.9 0 Calma 4 Sudeste 0 -- -- 70
2019-02-13 06:00:00 4 0 Calma 4 Nordeste 0 -- -- 68
2019-02-13 05:00:00 5.2 2 Nordeste 7 Nordeste 0 -- -- 62
2019-02-13 04:00:00 7.1 3 Este 6 Sudeste 0 -- -- 57
2019-02-13 03:00:00 7 4 Sudeste 9 Sur 0 -- -- 56
2019-02-13 02:00:00 6.5 0 Calma 3 Este 0 -- -- 56
2019-02-13 01:00:00 7.4 0 Calma 3 Sur 0 -- -- 52
2019-02-13 00:00:00 7.7 0 Calma 7 Este 0 -- -- 52
2019-02-12 23:00:00 8.2 0 Calma 9 Este 0 -- -- 50
2019-02-12 22:00:00 8 5 Este 7 Este 0 -- -- 53
2019-02-12 21:00:00 9 6 Nordeste 9 Nordeste 0 -- -- 50
2019-02-12 20:00:00 9.5 5 Nordeste 10 Nordeste 0 -- -- 47
2019-02-12 19:00:00 12.3 4 Norte 12 Noroeste 0 -- -- 38
2019-02-12 18:00:00 14.9 3 Nordeste 10 Norte 0 -- -- 32
2019-02-12 17:00:00 15.1 5 Noroeste 11 Norte 0 -- -- 32
2019-02-12 16:00:00 15.1 3 Nordeste 13 Nordeste 0 -- -- 32
2019-02-12 15:00:00 14.7 4 Norte 13 Norte 0 -- -- 33
2019-02-12 14:00:00 14.1 6 Noroeste 16 Noroeste 0 -- -- 35
2019-02-12 13:00:00 13 5 Noroeste 15 Oeste 0 -- -- 37
2019-02-12 12:00:00 11.6 5 Noroeste 12 Oeste 0 -- -- 43
2019-02-12 11:00:00 9.7 4 Norte 7 Norte 0 -- -- 50
2019-02-12 10:00:00 7.4 0 Calma 5 Nordeste 0 -- -- 62
2019-02-12 09:00:00 3.4 0 Calma 3 Sudeste 0 -- -- 73
2019-02-12 08:00:00 2.3 0 Calma 4 Nordeste 0 -- -- 68
2019-02-12 07:00:00 3.6 4 Noroeste 14 Nordeste 0 -- -- 62
2019-02-12 06:00:00 5.3 8 Nordeste 13 Nordeste 0 -- -- 57
2019-02-12 05:00:00 5.3 4 Nordeste 11 Norte 0 -- -- 57
2019-02-12 04:00:00 6 6 Nordeste 13 Nordeste 0 -- -- 57
2019-02-12 03:00:00 6.9 5 Nordeste 11 Nordeste 0 -- -- 56
2019-02-12 02:00:00 8 6 Nordeste 15 Nordeste 0 -- -- 54
2019-02-12 01:00:00 8.4 8 Nordeste 14 Nordeste 0 -- -- 56
2019-02-12 00:00:00 7.9 4 Nordeste 11 Nordeste 0 -- -- 59
2019-02-11 23:00:00 8.8 6 Nordeste 16 Nordeste 0 -- -- 59
2019-02-11 22:00:00 8.7 8 Nordeste 11 Nordeste 0 -- -- 68
2019-02-11 21:00:00 8.6 6 Nordeste 13 Norte 0 -- -- 71
2019-02-11 20:00:00 10.3 3 Noroeste -- -- -- -- -- 71
2019-02-11 19:00:00 11.2 5 Sudoeste 13 Sudoeste 0 -- -- 63
2019-02-11 18:00:00 13 9 Sudoeste 15 Sudoeste 0 -- -- 59
2019-02-11 17:00:00 13.4 9 Oeste 14 Oeste 0 -- -- 58
2019-02-11 16:00:00 13.2 10 Oeste 17 Oeste 0 -- -- 59
2019-02-11 15:00:00 13.1 5 Oeste 15 Oeste 0 -- -- 61
2019-02-11 14:00:00 12.9 3 Sur 12 Sudoeste 0.1 -- -- 60
2019-02-11 13:00:00 11.6 6 Sudoeste 14 Sur 0 -- -- 68
2019-02-11 12:00:00 10.7 5 Este 15 Nordeste 0 -- -- 88
2019-02-11 11:00:00 6.5 6 Nordeste 13 Nordeste 0 -- -- 89
2019-02-11 10:00:00 5.3 5 Norte 11 Norte 0 -- -- 89
2019-02-11 09:00:00 4.9 3 Sur 9 Sur 0 -- -- 89
2019-02-11 08:00:00 4.9 5 Sudeste 10 Sudoeste 0 -- -- 88
2019-02-11 07:00:00 6.4 4 Sudoeste 12 Sudoeste 0 -- -- 88
2019-02-11 06:00:00 6.8 7 Sudoeste 11 Sudoeste 0 -- -- 88
2019-02-11 05:00:00 7.6 6 Sudoeste 12 Oeste 0 -- -- 88
2019-02-11 04:00:00 8.3 6 Sudoeste 11 Sudoeste 0 -- -- 89
2019-02-11 03:00:00 8.4 10 Sudoeste 14 Sudoeste 0 -- -- 89
2019-02-11 02:00:00 10.1 8 Sudoeste 19 Sudoeste 0 -- -- 89
2019-02-11 01:00:00 10.8 11 Sudoeste 21 Sudoeste 0 -- -- 88
2019-02-11 00:00:00 11.2 10 Sudoeste 23 Sudoeste 0.1 -- -- 88
2019-02-10 23:00:00 11.2 9 Sudoeste 22 Sudoeste 0.3 -- -- 88
2019-02-10 22:00:00 11.1 10 Sur 19 Sudoeste 0 -- -- 88
2019-02-10 21:00:00 11.1 8 Sur 21 Sur 0.1 -- -- 86
2019-02-10 20:00:00 11.4 7 Sur 23 Sur 0 -- -- 78
2019-02-10 19:00:00 11.7 7 Sur 22 Sur 0 -- -- 75
2019-02-10 18:00:00 12.1 8 Sur 23 Sur 0 -- -- 69
2019-02-10 17:00:00 12.5 11 Sur 25 Sudoeste 0 -- -- 65
2019-02-10 16:00:00 12.4 14 Sudoeste 31 Sudoeste 0 -- -- 65
2019-02-10 15:00:00 12.4 19 Sudoeste 30 Sur 0 -- -- 65
2019-02-10 14:00:00 11.6 12 Sur 26 Sudoeste 0 -- -- 70
2019-02-10 13:00:00 11.3 13 Sudoeste 32 Sudoeste 0 -- -- 72
2019-02-10 12:00:00 10.6 12 Sur 31 Sur 0 -- -- 73
2019-02-10 11:00:00 9.3 9 Sur 19 Sur 0 -- -- 78
2019-02-10 10:00:00 8.2 6 Sur 17 Sur 0 -- -- 78
2019-02-10 09:00:00 7.4 4 Sur 12 Sudeste 0 -- -- 78
2019-02-10 08:00:00 7 4 Sur 9 Sur 0 -- -- 83
2019-02-10 07:00:00 6.7 5 Sur 10 Sur 0 -- -- 85
2019-02-10 06:00:00 5.9 4 Sur 7 Sur 0 -- -- 83
2019-02-10 05:00:00 6.5 3 Sur 10 Sudoeste 0 -- -- 78
2019-02-10 04:00:00 6.9 7 Sudoeste 11 Sudoeste 0 -- -- 78
2019-02-10 03:00:00 6.3 5 Sur 10 Sudeste 0 -- -- 83
2019-02-10 02:00:00 6.2 6 Sur 11 Sur 0 -- -- 85
2019-02-10 01:00:00 6.1 5 Sur 10 Sudeste 0 -- -- 84
2019-02-10 00:00:00 5.6 4 Sudeste 6 Sudeste 0 -- -- 84
2019-02-09 23:00:00 5.6 3 Sudeste 4 Sudeste 0 -- -- 83
2019-02-09 22:00:00 5.7 0 Calma 3 Sudeste 0 -- -- 78
2019-02-09 21:00:00 6.7 0 Calma 9 Norte 0 -- -- 77
2019-02-09 20:00:00 8.5 2 Sur 5 Sudeste 0 -- -- 71
2019-02-09 19:00:00 10.6 3 Sur 9 Sudeste 0 -- -- 64
2019-02-09 18:00:00 11.8 4 Sudeste 11 Sudeste 0 -- -- 56
2019-02-09 17:00:00 12.9 4 Sur 14 Sudeste 0 -- -- 53
2019-02-09 16:00:00 13.3 4 Sur 13 Sudeste 0 -- -- 50
2019-02-09 15:00:00 12.3 5 Sur 13 Sudeste 0 -- -- 55
2019-02-09 14:00:00 11 5 Sur 14 Sudoeste 0 -- -- 60
2019-02-09 13:00:00 11.8 5 Sur 14 Sur 0 -- -- 59
2019-02-09 12:00:00 10.6 5 Sur 12 Sudeste 0 -- -- 67
2019-02-09 11:00:00 8.6 8 Sudeste 14 Sudeste 0 -- -- 77
2019-02-09 10:00:00 6.9 5 Sur 9 Sudeste 0 -- -- 89
2019-02-09 09:00:00 4.3 5 Sur 8 Sudeste 0 -- -- 89
2019-02-09 08:00:00 3.2 3 Sur 6 Sudeste 0 -- -- 89
2019-02-09 07:00:00 3.5 4 Sudeste 7 Sudeste 0 -- -- 88
2019-02-09 06:00:00 4.2 5 Sudeste 7 Sudeste 0 -- -- 88
2019-02-09 05:00:00 4 5 Sur 8 Sur 0 -- -- 87
2019-02-09 04:00:00 4.6 6 Sudeste 8 Sudeste 0 -- -- 86
2019-02-09 03:00:00 4.6 3 Sudeste 7 Sudeste 0 -- -- 85
2019-02-09 02:00:00 4.6 5 Sudeste 7 Sudeste 0 -- -- 85
2019-02-09 01:00:00 5.1 4 Sudeste 5 Sudeste 0 -- -- 84
2019-02-09 00:00:00 5.3 4 Sudoeste 6 Sudoeste 0 -- -- 82
2019-02-08 23:00:00 5.5 0 Calma 4 Sudeste 0 -- -- 78
2019-02-08 22:00:00 6.8 3 Sur 5 Sur 0 -- -- 77
2019-02-08 21:00:00 8 4 Oeste 11 Oeste 0 -- -- 71
2019-02-08 20:00:00 8.6 7 Sudoeste 15 Sudoeste 0 -- -- 60
2019-02-08 19:00:00 10.9 7 Sudoeste 18 Oeste 0 -- -- 53
2019-02-08 18:00:00 14.3 10 Sudoeste 19 Sudoeste 0 -- -- 42
2019-02-08 17:00:00 14.9 7 Sudoeste 19 Sudoeste 0 -- -- 46
2019-02-08 16:00:00 15.5 6 Sudoeste 17 Sudoeste 0 -- -- 44
2019-02-08 15:00:00 15.2 5 Sur 18 Sur 0 -- -- 45
2019-02-08 14:00:00 14.5 5 Sur 18 Sudoeste 0 -- -- 47
2019-02-08 13:00:00 14.1 5 Sur 14 Sur 0 -- -- 47
2019-02-08 12:00:00 13.2 5 Sudeste 14 Sudeste 0 -- -- 52
2019-02-08 11:00:00 11.4 10 Sudeste 18 Sudeste 0 -- -- 59
2019-02-08 10:00:00 8.6 5 Sur 11 Sudeste 0 -- -- 70
2019-02-08 09:00:00 5 6 Sudeste 8 Sudeste 0 -- -- 85
2019-02-08 08:00:00 3.6 3 Sudeste 7 Sudeste 0 -- -- 85
2019-02-08 07:00:00 3.7 5 Sudeste 7 Sudeste 0 -- -- 84
2019-02-08 06:00:00 4.4 3 Sudeste 6 Sudeste 0 -- -- 84
2019-02-08 05:00:00 4.7 3 Sudeste 7 Sudeste 0 -- -- 85
2019-02-08 04:00:00 3.8 4 Sudeste 5 Sur 0 -- -- 82
2019-02-08 03:00:00 5 4 Sudeste 6 Sudeste 0 -- -- 82
2019-02-08 02:00:00 4.7 4 Sudeste 5 Sudeste 0 -- -- 78
2019-02-08 01:00:00 5.1 4 Sudeste 6 Sudeste 0 -- -- 78
2019-02-08 00:00:00 6 4 Sudeste 5 Sudeste 0 -- -- 75
2019-02-07 23:00:00 6.2 4 Sudeste 5 Sur 0 -- -- 71
2019-02-07 22:00:00 8.2 3 Sur 6 Sur 0 -- -- 68
2019-02-07 21:00:00 9.4 4 Sur 6 Sudoeste 0 -- -- 64
2019-02-07 20:00:00 10.4 4 Sudoeste 8 Sudoeste 0 -- -- 59
2019-02-07 19:00:00 12.4 5 Sudoeste 12 Sudoeste 0 -- -- 50
2019-02-07 18:00:00 14.4 9 Oeste 13 Oeste 0 -- -- 43
2019-02-07 17:00:00 15.1 9 Oeste 18 Oeste 0 -- -- 40
2019-02-07 16:00:00 15 8 Oeste 15 Oeste 0 -- -- 41
2019-02-07 15:00:00 14.5 10 Sudoeste 19 Oeste 0 -- -- 41
2019-02-07 14:00:00 13.4 11 Oeste 16 Oeste 0 -- -- 37
2019-02-07 13:00:00 12.5 8 Oeste 21 Sudoeste 0 -- -- 43
2019-02-07 12:00:00 11.5 4 Sudoeste 10 Sudoeste 0 -- -- 55
2019-02-07 11:00:00 10.3 5 Sudoeste 10 Sudoeste 0 -- -- 60
2019-02-07 10:00:00 8.2 3 Sur 9 Sudeste 0 -- -- 70
2019-02-07 09:00:00 4.9 2 Sur 6 Sur 0 -- -- 78
2019-02-07 08:00:00 4.3 3 Sur 6 Sudeste 0 -- -- 78
2019-02-07 07:00:00 3.6 5 Sur 8 Sudeste 0 -- -- 78
2019-02-07 06:00:00 4.6 3 Sudeste 7 Sudeste 0 -- -- 75
2019-02-07 05:00:00 6.2 4 Sur 6 Sur 0 -- -- 73
2019-02-07 04:00:00 7.2 5 Sudeste 6 Sudeste 0 -- -- 71
2019-02-07 03:00:00 7.4 4 Sur 6 Sur 0 -- -- 72
2019-02-07 02:00:00 7.4 3 Sur 5 Sudeste 0 -- -- 74
2019-02-07 01:00:00 7.6 3 Sudeste 5 Sudeste 0 -- -- 72
2019-02-07 00:00:00 8.1 5 Sur 7 Sur 0 -- -- 71
2019-02-06 23:00:00 6.9 4 Sur 5 Sur 0 -- -- 71
2019-02-06 22:00:00 7.1 0 Calma 4 Sudeste 0 -- -- 68
2019-02-06 21:00:00 8.6 0 Calma 4 Sudeste 0 -- -- 62
2019-02-06 20:00:00 10.5 0 Calma 4 Sudoeste 0 -- -- 53
2019-02-06 19:00:00 12.8 0 Calma 10 Sudoeste 0 -- -- 45
2019-02-06 18:00:00 14.9 7 Oeste 14 Sudoeste 0 -- -- 40
2019-02-06 17:00:00 15.5 9 Oeste 15 Oeste 0 -- -- 38
2019-02-06 16:00:00 16.5 9 Oeste 16 Oeste 0 -- -- 39
2019-02-06 15:00:00 16.6 5 Sudoeste 15 Sudoeste 0 -- -- 39
2019-02-06 14:00:00 16 7 Sudoeste 15 Sur 0 -- -- 38
2019-02-06 13:00:00 15.9 4 Sur 12 Sudoeste 0 -- -- 38
2019-02-06 12:00:00 13.7 5 Sudoeste 10 Sudoeste 0 -- -- 43
2019-02-06 11:00:00 12.4 4 Sur 11 Sudeste 0 -- -- 48
2019-02-06 10:00:00 10.4 4 Sudeste 6 Sudeste 0 -- -- 58
2019-02-06 09:00:00 4.6 0 Calma 4 Sudeste 0 -- -- 71
2019-02-06 08:00:00 4.7 3 Sudeste 5 Sudeste 0 -- -- 70
2019-02-06 07:00:00 4.9 5 Sudeste 6 Sudeste 0 -- -- 69
2019-02-06 06:00:00 4.9 4 Sudeste 6 Sudeste 0 -- -- 68
2019-02-06 05:00:00 4.5 4 Sur 7 Sur 0 -- -- 70
2019-02-06 04:00:00 4.5 0 Calma -- -- 0 -- -- 70
2019-02-06 03:00:00 4.5 0 Calma -- -- 0 -- -- 70
2019-02-06 02:00:00 5.2 0 Calma -- -- 0 -- -- 69
2019-02-06 01:00:00 5.3 2 Nordeste 4 Nordeste 0 -- -- 69
2019-02-06 00:00:00 5.6 0 Calma 0 Calma 0 -- -- 66
2019-02-05 23:00:00 6 0 Calma 9 Este 0 -- -- 62
2019-02-05 22:00:00 7.6 4 Este 7 Este 0 -- -- 59
2019-02-05 21:00:00 8 0 Calma 2 Norte 0 -- -- 56
2019-02-05 20:00:00 10 0 Calma 3 Oeste 0 -- -- 48
2019-02-05 19:00:00 12.3 0 Calma 8 Oeste 0 -- -- 42
2019-02-05 18:00:00 14.6 7 Oeste 10 Oeste 0 -- -- 38
2019-02-05 17:00:00 15.6 5 Oeste 10 Oeste 0 -- -- 36
2019-02-05 16:00:00 17 2 Sur 9 Sudeste 0 -- -- 33
2019-02-05 15:00:00 15 4 Oeste 10 Noroeste 0 -- -- 39
2019-02-05 14:00:00 14 4 Oeste 11 Noroeste 0 -- -- 40
2019-02-05 13:00:00 13 2 Noroeste 9 Noroeste 0 -- -- 43
2019-02-05 12:00:00 11.7 3 Noroeste 9 Noroeste 0 -- -- 49
2019-02-05 11:00:00 10 2 Oeste 5 Oeste 0 -- -- 53
2019-02-05 10:00:00 6.8 0 Calma 7 Sudeste 0 -- -- 59
2019-02-05 09:00:00 3.2 6 Sudeste 9 Sudeste 0 -- -- 70
2019-02-05 08:00:00 0.8 4 Sudeste 6 Sudeste 0 -- -- 75
2019-02-05 07:00:00 1.2 0 Calma 4 Sudeste 0 -- -- 74
2019-02-05 06:00:00 1.1 2 Sudeste 3 Sudeste 0 -- -- 73
2019-02-05 05:00:00 1.8 0 Calma 2 Sudeste 0 -- -- 71
2019-02-05 04:00:00 1.8 2 Sudeste 4 Sur 0 -- -- 72
2019-02-05 03:00:00 1.5 0 Calma 0 Calma 0 -- -- 71
2019-02-05 02:00:00 1.4 0 Calma -- -- 0 -- -- 70
2019-02-05 01:00:00 2.4 0 Calma 3 Sudeste 0 -- -- 68
2019-02-05 00:00:00 3 0 Calma 3 Nordeste 0 -- -- 66
2019-02-04 23:00:00 3.4 0 Calma 5 Nordeste 0 -- -- 64
2019-02-04 22:00:00 3.9 2 Este 4 Este 0 -- -- 63
2019-02-04 21:00:00 5.2 0 Calma 3 Este 0 -- -- 55
2019-02-04 20:00:00 6.2 0 Calma 3 Sudoeste 0 -- -- 51
2019-02-04 19:00:00 8.4 0 Calma 8 Noroeste 0 -- -- 42
2019-02-04 18:00:00 11.2 5 Oeste 11 Sudoeste 0 -- -- 35
2019-02-04 17:00:00 11.8 4 Oeste 14 Sudoeste 0 -- -- 33
2019-02-04 16:00:00 11.9 5 Oeste 15 Noroeste 0 -- -- 35
2019-02-04 15:00:00 11.6 5 Oeste 13 Sudoeste 0 -- -- 33
2019-02-04 14:00:00 10.8 7 Sudoeste 15 Sudoeste 0 -- -- 34
2019-02-04 13:00:00 10.4 5 Sudoeste 11 Sudoeste 0 -- -- 37
2019-02-04 12:00:00 8.2 3 Oeste 8 Sudoeste 0 -- -- 43
2019-02-04 11:00:00 6.1 3 Noroeste 9 Nordeste 0 -- -- 49
2019-02-04 10:00:00 4 6 Nordeste 12 Nordeste 0 -- -- 57
2019-02-04 09:00:00 -0.5 0 Calma 4 Este 0 -- -- 71
2019-02-04 08:00:00 -0.8 0 Calma 7 Sudeste 0 -- -- 70
2019-02-04 07:00:00 -1.3 0 Calma 7 Este 0 -- -- 70
2019-02-04 06:00:00 -0.4 2 Sudeste 5 Oeste 0 -- -- 70
2019-02-04 05:00:00 -0.7 2 Oeste 5 Oeste 0 -- -- 67
2019-02-04 04:00:00 0 2 Sudeste 10 Este 0 -- -- 66
2019-02-04 03:00:00 0.1 3 Sudeste 11 Oeste 0 -- -- 66
2019-02-04 02:00:00 0.6 3 Sudeste 9 Sudeste 0 -- -- 64
2019-02-04 01:00:00 0.4 3 Sudoeste 6 Sudoeste 0 -- -- 63
2019-02-04 00:00:00 0.8 5 Sudoeste 8 Sudoeste 0 -- -- 61
2019-02-03 23:00:00 1.4 3 Sudeste 6 Sudoeste 0 -- -- 55
2019-02-03 22:00:00 3.4 2 Noroeste 7 Noroeste 0 -- -- 47
2019-02-03 21:00:00 3.3 3 Sur 6 Oeste 0 -- -- 44
2019-02-03 20:00:00 5.1 2 Oeste 6 Oeste 0 -- -- 41
2019-02-03 19:00:00 6.5 5 Oeste 12 Oeste 0 -- -- 36
2019-02-03 18:00:00 9.5 9 Oeste 15 Oeste 0 -- -- 33
2019-02-03 17:00:00 10.2 7 Oeste 15 Oeste 0 -- -- 32
2019-02-03 16:00:00 10.3 4 Oeste 13 Sudoeste 0 -- -- 32
2019-02-03 15:00:00 9.6 7 Oeste 15 Noroeste 0 -- -- 33
2019-02-03 14:00:00 9.2 3 Oeste 13 Noroeste 0 -- -- 33
2019-02-03 13:00:00 8.5 4 Noroeste 14 Norte 0 -- -- 37
2019-02-03 12:00:00 6.7 3 Noroeste 9 Noroeste 0 -- -- 54
2019-02-03 11:00:00 4.1 4 Norte 9 Noroeste 0 -- -- 65
2019-02-03 10:00:00 2.2 0 Calma 4 Sudeste 0 -- -- 77
2019-02-03 09:00:00 -1.8 2 Sudeste 4 Sudeste 0 -- -- 82
2019-02-03 08:00:00 -0.9 0 Calma 5 Sudeste 0 -- -- 78
2019-02-03 07:00:00 -0.6 0 Calma 7 Sur 0 -- -- 77
2019-02-03 06:00:00 0.1 0 Calma 7 Sur 0 -- -- 74
2019-02-03 05:00:00 0.1 2 Sudoeste 8 Sudoeste 0 -- -- 71
2019-02-03 04:00:00 1 0 Calma 22 Oeste 0 -- -- 65
2019-02-03 03:00:00 2.3 19 Oeste 28 Oeste 0 -- -- 59
2019-02-03 02:00:00 2.8 17 Oeste 40 Oeste 0 -- -- 53
2019-02-03 01:00:00 3.3 21 Oeste 28 Oeste 0 -- -- 50
2019-02-03 00:00:00 3.7 4 Noroeste 18 Oeste 0 -- -- 46
2019-02-02 23:00:00 4.4 15 Oeste 24 Noroeste 0 -- -- 45
2019-02-02 22:00:00 4.7 15 Oeste 26 Oeste 0 -- -- 43
2019-02-02 21:00:00 4.1 10 Oeste 18 Oeste 0 -- -- 43
2019-02-02 20:00:00 4.4 11 Oeste 21 Oeste 0 -- -- 43
2019-02-02 19:00:00 6 17 Oeste 33 Oeste 0 -- -- 39
2019-02-02 18:00:00 8.2 18 Oeste 36 Oeste 0 -- -- 34
2019-02-02 17:00:00 9.1 20 Noroeste 38 Oeste 0 -- -- 34
2019-02-02 16:00:00 9.1 24 Noroeste 44 Oeste 0 -- -- 36
2019-02-02 15:00:00 9.2 25 Oeste 48 Noroeste 0 -- -- 37
2019-02-02 14:00:00 8.5 24 Noroeste 45 Noroeste 0 -- -- 39
2019-02-02 13:00:00 8.1 25 Oeste 44 Oeste 0 -- -- 42
2019-02-02 12:00:00 6.9 27 Noroeste 44 Noroeste 0 -- -- 44
2019-02-02 11:00:00 6.2 20 Oeste 37 Noroeste 0 -- -- 54
2019-02-02 10:00:00 3.8 17 Oeste 28 Oeste 0 -- -- 67
2019-02-02 09:00:00 1.9 17 Oeste 26 Oeste 0 -- -- 76
2019-02-02 08:00:00 2.1 16 Oeste 27 Oeste 0 -- -- 77
2019-02-02 07:00:00 2.1 14 Sudoeste 30 Oeste 0 -- -- 81
2019-02-02 06:00:00 3.5 22 Oeste 36 Oeste 0 -- -- 78
2019-02-02 05:00:00 4.3 20 Oeste 31 Sudoeste 0 -- -- 83
2019-02-02 04:00:00 3 19 Oeste 28 Oeste 0 -- -- 83
2019-02-02 03:00:00 4 16 Oeste 33 Oeste 0 -- -- 81
2019-02-02 02:00:00 4.3 20 Sudoeste 28 Sudoeste 0 -- -- 78
2019-02-02 01:00:00 3.8 17 Sudoeste 26 Sudoeste 0 -- -- 78
2019-02-02 00:00:00 4.2 19 Sudoeste 30 Sudoeste 0 -- -- 78
2019-02-01 23:00:00 4.6 17 Sudoeste 31 Sudoeste 0 -- -- 78
2019-02-01 22:00:00 4.5 21 Sudoeste 32 Sudoeste 0 -- -- 77
2019-02-01 21:00:00 4.9 24 Sudoeste 40 Sudoeste 0 -- -- 73
2019-02-01 20:00:00 5.3 26 Sudoeste 40 Sudoeste 0 -- -- 67
2019-02-01 19:00:00 6 22 Sudoeste 42 Sudoeste 0 -- -- 60
2019-02-01 18:00:00 7.1 33 Oeste 54 Oeste 0 -- -- 54
2019-02-01 17:00:00 8 34 Sudoeste 53 Oeste 0 -- -- 63
2019-02-01 16:00:00 7.2 36 Oeste 64 Oeste 0 -- -- 72
2019-02-01 15:00:00 7.3 30 Sudoeste 68 Sudoeste 1.3 -- -- 75
2019-02-01 14:00:00 9.3 37 Sudoeste 68 Sudoeste 0 -- -- 59
2019-02-01 13:00:00 8.7 33 Sudoeste 56 Sudoeste 0 -- -- 63
2019-02-01 12:00:00 8.1 26 Sudoeste 43 Sudoeste 0 -- -- 69
2019-02-01 11:00:00 8.2 26 Sudoeste 44 Oeste 0 -- -- 70
2019-02-01 10:00:00 7 22 Sudoeste 36 Sudoeste 0 -- -- 74
2019-02-01 09:00:00 6.2 22 Sudoeste 42 Sudoeste 0 -- -- 77
2019-02-01 08:00:00 6.7 28 Sudoeste 46 Sudoeste 0.1 -- -- 78
2019-02-01 07:00:00 7.1 21 Sudoeste 47 Oeste 0 -- -- 78
2019-02-01 06:00:00 7.5 26 Sudoeste 46 Sudoeste 0.1 -- -- 78
2019-02-01 05:00:00 8.3 17 Sudoeste 33 Sudoeste 0 -- -- 81
2019-02-01 04:00:00 8.6 26 Sudoeste 41 Sudoeste 0 -- -- 82
2019-02-01 03:00:00 8.5 21 Sudoeste 41 Oeste 0.8 -- -- 88
2019-02-01 02:00:00 10.1 26 Sudoeste 49 Sudoeste 5.2 -- -- 87
2019-02-01 01:00:00 11.4 19 Sur 44 Sur 1.2 -- -- 87
2019-02-01 00:00:00 11.2 18 Sur 41 Sudoeste 0.3 -- -- 87
2019-01-31 23:00:00 10.8 13 Sur 43 Sur 1.4 -- -- 87
2019-01-31 22:00:00 10.9 19 Sur 37 Sur 0.1 -- -- 87
2019-01-31 21:00:00 10.7 17 Sur 37 Sur 1 -- -- 87
2019-01-31 20:00:00 10.9 15 Sur 34 Sudoeste 0 -- -- 83
2019-01-31 19:00:00 11.3 20 Sudoeste 36 Sudoeste 0 -- -- 78
2019-01-31 18:00:00 12.1 19 Sudoeste 40 Sudoeste 0 -- -- 78
2019-01-31 17:00:00 12.4 19 Sudoeste 34 Sudoeste 0 -- -- 78
2019-01-31 16:00:00 12.1 21 Sudoeste 45 Sudoeste 0.2 -- -- 86
2019-01-31 15:00:00 12.1 20 Sudoeste 41 Sudoeste 0.5 -- -- 86
2019-01-31 14:00:00 12.3 21 Sudoeste 38 Sudoeste 0 -- -- 79
2019-01-31 13:00:00 12.1 21 Sudoeste 37 Sudoeste 0 -- -- 83
2019-01-31 12:00:00 11.2 19 Sudoeste 32 Sudoeste 0 -- -- 88
2019-01-31 11:00:00 11.1 12 Sur 27 Sur 0.7 -- -- 88
2019-01-31 10:00:00 10.6 12 Sudoeste 26 Sudoeste 0 -- -- 88
2019-01-31 09:00:00 10.1 10 Sudoeste 27 Sudoeste 0 -- -- 88
2019-01-31 08:00:00 10.5 21 Sudoeste 30 Sudoeste 0.8 -- -- 88
2019-01-31 07:00:00 10.6 18 Sudoeste 35 Sudoeste 0 -- -- 88
2019-01-31 06:00:00 10.7 16 Sudoeste 40 Sudoeste 0 -- -- 88
2019-01-31 05:00:00 10.6 19 Sudoeste 35 Sudoeste 0 -- -- 88
2019-01-31 04:00:00 11 19 Sudoeste 39 Sudoeste 0 -- -- 88
2019-01-31 03:00:00 10.9 17 Sudoeste 40 Sudoeste 0 -- -- 88
2019-01-31 02:00:00 10.7 20 Sudoeste 36 Sudoeste 0.2 -- -- 88
2019-01-31 01:00:00 10.7 22 Sudoeste 41 Sudoeste 0 -- -- 88
2019-01-31 00:00:00 10.2 24 Sudoeste 39 Sudoeste 0 -- -- 88
2019-01-30 23:00:00 9.8 19 Sur 37 Sudoeste 0.1 -- -- 88
2019-01-30 22:00:00 9.5 13 Sur 29 Sur 0.1 -- -- 88
2019-01-30 21:00:00 9.3 11 Sur 27 Sur 0.3 -- -- 88
2019-01-30 20:00:00 8.9 9 Sur 25 Sur 0 -- -- 88
2019-01-30 19:00:00 8.7 11 Sur 26 Sur 0.3 -- -- 86
2019-01-30 18:00:00 8.5 7 Sur 20 Sur 0.3 -- -- 85
2019-01-30 17:00:00 8.1 13 Sudoeste 25 Sudoeste 0.4 -- -- 83
2019-01-30 16:00:00 8.9 9 Sudoeste 23 Sudoeste 0 -- -- 69
2019-01-30 15:00:00 9.3 14 Sudoeste 26 Sudoeste 0 -- -- 61
2019-01-30 14:00:00 9.2 14 Oeste 23 Sudoeste 0 -- -- 62
2019-01-30 13:00:00 9.1 12 Oeste 21 Oeste 0 -- -- 59
2019-01-30 12:00:00 8.5 11 Oeste 19 Oeste 0 -- -- 63
2019-01-30 11:00:00 6.7 14 Oeste 22 Oeste 0 -- -- 78
2019-01-30 10:00:00 5.4 9 Oeste 14 Oeste 0 -- -- 83
2019-01-30 09:00:00 3.8 5 Oeste 15 Oeste 0 -- -- 82
2019-01-30 08:00:00 3.8 6 Oeste 16 Oeste 0 -- -- 78
2019-01-30 07:00:00 4.9 12 Sudoeste 21 Oeste 0 -- -- 75
2019-01-30 06:00:00 5.7 16 Oeste 24 Oeste 0 -- -- 73
2019-01-30 05:00:00 5.6 13 Sudoeste 24 Oeste 0 -- -- 76
2019-01-30 04:00:00 5.8 16 Oeste 26 Sudoeste 0 -- -- 78
2019-01-30 03:00:00 6.3 19 Oeste 27 Oeste 0 -- -- 78
2019-01-30 02:00:00 6.2 17 Sudoeste 30 Sudoeste 0 -- -- 85
2019-01-30 01:00:00 6.7 18 Sudoeste 28 Oeste 0 -- -- 86
2019-01-30 00:00:00 7.8 18 Sudoeste 33 Sudoeste 0 -- -- 87
2019-01-29 23:00:00 9.1 26 Sudoeste 39 Oeste 0 -- -- 86
2019-01-29 22:00:00 9.5 21 Sudoeste 32 Oeste 0 -- -- 85
2019-01-29 21:00:00 9.5 22 Oeste 36 Sudoeste 0 -- -- 83
2019-01-29 20:00:00 9.5 25 Sudoeste 37 Oeste 0 -- -- 78
2019-01-29 19:00:00 9.4 23 Sudoeste 49 Oeste 0 -- -- 73
2019-01-29 18:00:00 10.8 24 Sudoeste 41 Sudoeste 0 -- -- 67
2019-01-29 17:00:00 11.5 25 Sudoeste 38 Sudoeste 0 -- -- 64
2019-01-29 16:00:00 11.1 25 Sudoeste 39 Sudoeste 0 -- -- 66
2019-01-29 15:00:00 11.1 26 Sudoeste 42 Sudoeste 0 -- -- 67
2019-01-29 14:00:00 10.7 25 Oeste 47 Sudoeste 0 -- -- 70
2019-01-29 13:00:00 10.6 28 Sudoeste 45 Sudoeste 0 -- -- 77
2019-01-29 12:00:00 8.8 16 Sudoeste 24 Oeste 0 -- -- 78
2019-01-29 11:00:00 7.1 10 Sudoeste 21 Sudoeste 0 -- -- 82
2019-01-29 10:00:00 5.8 6 Sudoeste 17 Sudoeste 0 -- -- 84
2019-01-29 09:00:00 -- 8 Sudoeste 15 Sudoeste 0 -- -- --
2019-01-29 08:00:00 4.1 8 Sudoeste 15 Sudoeste 0 -- -- 84
2019-01-29 07:00:00 4.6 7 Sudoeste 19 Sudoeste 0 -- -- 84
2019-01-29 06:00:00 4.4 9 Sudoeste 15 Sur 0 -- -- 86
2019-01-29 05:00:00 4.7 6 Sudoeste 19 Sudoeste 0 -- -- 86
2019-01-29 04:00:00 5.2 16 Sudoeste 23 Oeste 0 -- -- 87
2019-01-29 03:00:00 5.4 9 Sudoeste 19 Oeste 0 -- -- 88
2019-01-29 02:00:00 5.8 13 Oeste 27 Oeste 0 -- -- 88
2019-01-29 01:00:00 6.1 3 Sudoeste 16 Oeste 0 -- -- 88
2019-01-29 00:00:00 6.8 5 Sudoeste 24 Oeste 0 -- -- 87
2019-01-28 23:00:00 7.5 16 Oeste 23 Oeste 0 -- -- 87
2019-01-28 22:00:00 7.3 12 Oeste 31 Oeste 0 -- -- 86
2019-01-28 21:00:00 7.8 20 Oeste 30 Oeste 0 -- -- 83
2019-01-28 20:00:00 8.7 14 Oeste 35 Oeste 0 -- -- 78
2019-01-28 19:00:00 9.5 25 Oeste 39 Oeste 0 -- -- 75
2019-01-28 18:00:00 10.4 26 Oeste 45 Oeste 0 -- -- 68
2019-01-28 17:00:00 11.2 24 Oeste 46 Oeste 0 -- -- 62
2019-01-28 16:00:00 11.5 30 Oeste 46 Oeste 0 -- -- 54
2019-01-28 15:00:00 12.4 31 Oeste 48 Oeste 0 -- -- 53
2019-01-28 14:00:00 12.2 25 Oeste 48 Oeste 0 -- -- 50
2019-01-28 13:00:00 11.8 27 Oeste 41 Oeste 0 -- -- 54
2019-01-28 12:00:00 9.9 17 Oeste 30 Oeste 0 -- -- 63
2019-01-28 11:00:00 7.2 12 Sudoeste 23 Oeste 0 -- -- 69
2019-01-28 10:00:00 5.2 14 Oeste -- -- -- -- -- 75
2019-01-28 09:00:00 3.7 6 Sudoeste 22 Oeste 0 -- -- 74
2019-01-28 08:00:00 3.1 7 Oeste 18 Sudoeste 0 -- -- 73
2019-01-28 07:00:00 4 11 Oeste 19 Oeste 0 -- -- 71
2019-01-28 06:00:00 3.5 5 Sudoeste 27 Noroeste 0 -- -- 69
2019-01-28 05:00:00 5.2 22 Oeste 38 Oeste 0 -- -- 65
2019-01-28 04:00:00 4.8 13 Oeste 33 Oeste 0 -- -- 63
2019-01-28 03:00:00 4.6 11 Oeste 20 Oeste 0 -- -- 64
2019-01-28 02:00:00 4.4 12 Oeste 19 Oeste 0 -- -- 65
2019-01-28 01:00:00 4.7 13 Sudoeste 27 Oeste 0 -- -- 62
2019-01-28 00:00:00 5.5 12 Oeste 18 Oeste 0 -- -- 55
2019-01-27 23:00:00 6.6 10 Oeste 24 Noroeste 0 -- -- 50
2019-01-27 22:00:00 7 13 Oeste 30 Noroeste 0 -- -- 48
2019-01-27 21:00:00 6.9 15 Oeste 24 Oeste 0 -- -- 49
2019-01-27 20:00:00 7 13 Oeste 19 Oeste 0 -- -- 49
2019-01-27 19:00:00 8.3 9 Oeste 23 Oeste 0 -- -- 44
2019-01-27 18:00:00 10.5 12 Oeste 32 Oeste 0 -- -- 39
2019-01-27 17:00:00 11.6 23 Noroeste 40 Noroeste 0 -- -- 36
2019-01-27 16:00:00 12.3 25 Oeste 41 Oeste 0 -- -- 35
2019-01-27 15:00:00 11.8 24 Oeste 43 Oeste 0 -- -- 36
2019-01-27 14:00:00 11.3 24 Oeste 43 Oeste 0 -- -- 40
2019-01-27 13:00:00 11 23 Oeste 39 Oeste 0 -- -- 47
2019-01-27 12:00:00 9.6 26 Oeste 41 Oeste 0 -- -- 64
2019-01-27 11:00:00 7.1 13 Oeste 29 Oeste 0 -- -- 77
2019-01-27 10:00:00 4.6 14 Sudoeste 23 Sudoeste 0 -- -- 85
2019-01-27 09:00:00 3.1 12 Sudoeste 19 Sudoeste 0 -- -- 87
2019-01-27 08:00:00 3.4 9 Sudoeste 14 Sudoeste 0 -- -- 86
2019-01-27 07:00:00 4.4 0 Calma 8 Sudoeste 0 -- -- 85
2019-01-27 06:00:00 4.8 0 Calma 9 Sudoeste 0 -- -- 82
2019-01-27 05:00:00 5.8 4 Sudoeste 10 Oeste 0 -- -- 78
2019-01-27 04:00:00 6.1 5 Sur 9 Sur 0 -- -- 77
2019-01-27 03:00:00 6.8 5 Sur 10 Sudeste 0 -- -- 77
2019-01-27 02:00:00 7.3 5 Sur 12 Sudoeste 0 -- -- 75
2019-01-27 01:00:00 7.5 5 Sudoeste 12 Sur 0 -- -- 73
2019-01-27 00:00:00 8.7 5 Sur 10 Sur 0 -- -- 67
2019-01-26 23:00:00 7.9 3 Sur 12 Sudoeste 0 -- -- 61
2019-01-26 22:00:00 9.9 7 Sur 14 Sudoeste 0 -- -- 55
2019-01-26 21:00:00 9.3 5 Sur 9 Sur 0 -- -- 54
2019-01-26 20:00:00 9.6 6 Sur 7 Sur 0 -- -- 53
2019-01-26 19:00:00 12.2 3 Sur 9 Sudeste 0 -- -- 44
2019-01-26 18:00:00 15.5 4 Sudoeste 11 Oeste 0 -- -- 38
2019-01-26 17:00:00 16.3 7 Oeste 11 Sudoeste 0 -- -- 35
2019-01-26 16:00:00 16.7 2 Sudoeste 14 Sudoeste 0 -- -- 35
2019-01-26 15:00:00 16.4 6 Sudoeste 13 Sudeste 0 -- -- 35
2019-01-26 14:00:00 15.9 3 Sur 11 Sudoeste 0 -- -- 36
2019-01-26 13:00:00 14.4 5 Sur 14 Sudoeste 0 -- -- 39
2019-01-26 12:00:00 13.1 4 Sur 13 Sur 0 -- -- 43
2019-01-26 11:00:00 11.9 4 Sur 9 Sur 0 -- -- 56
2019-01-26 10:00:00 7.7 4 Sur 6 Sur 0 -- -- 78
2019-01-26 09:00:00 2.7 5 Sudeste 7 Sudeste 0 -- -- 86
2019-01-26 08:00:00 3.2 0 Calma 5 Norte 0 -- -- 85
2019-01-26 07:00:00 4.8 3 Sudeste 6 Sudeste 0 -- -- 84
2019-01-26 06:00:00 5.1 0 Calma 7 Este 0 -- -- 83
2019-01-26 05:00:00 4.6 3 Sur 5 Sur 0 -- -- 78
2019-01-26 04:00:00 5.5 0 Calma 6 Sur 0 -- -- 74
2019-01-26 03:00:00 6.5 3 Sur 9 Sur 0 -- -- 72
2019-01-26 02:00:00 6.5 0 Calma 4 Sur 0 -- -- 74
2019-01-26 01:00:00 6.4 4 Este 7 Nordeste 0 -- -- 74
2019-01-26 00:00:00 8.2 6 Este 9 Nordeste 0 -- -- 71
2019-01-25 23:00:00 8 3 Nordeste 5 Nordeste 0 -- -- 70
2019-01-25 22:00:00 7.5 0 Calma 4 Sudeste 0 -- -- 69
2019-01-25 21:00:00 9.1 0 Calma 4 Sudeste 0 -- -- 63
2019-01-25 20:00:00 10.7 2 Sur 4 Sur 0 -- -- 57
2019-01-25 19:00:00 13.1 0 Calma 5 Oeste 0 -- -- 47
2019-01-25 18:00:00 15.8 3 Noroeste 11 Noroeste 0 -- -- 42
2019-01-25 17:00:00 16.5 8 Oeste 13 Sudoeste 0 -- -- 40
2019-01-25 16:00:00 16.7 9 Oeste 14 Oeste 0 -- -- 43
2019-01-25 15:00:00 16.5 9 Oeste 15 Sudoeste 0 -- -- 44
2019-01-25 14:00:00 16.1 6 Sudoeste 18 Sudoeste 0 -- -- 44
2019-01-25 13:00:00 15.7 3 Sur 10 Sudoeste 0 -- -- 46
2019-01-25 12:00:00 12.9 3 Sur -- -- -- -- -- 61
2019-01-25 11:00:00 10.8 4 Oeste 8 Oeste 0 -- -- 74
2019-01-25 10:00:00 8.3 0 Calma 5 Sudeste 0 -- -- 83
2019-01-25 09:00:00 3.9 2 Sudeste 5 Sur 0 -- -- 87
2019-01-25 08:00:00 4.2 0 Calma 8 Sudeste 0 -- -- 86
2019-01-25 07:00:00 4.1 5 Sudeste 6 Sudeste 0 -- -- 86
2019-01-25 06:00:00 4.8 4 Sur 7 Sudeste 0 -- -- 84
2019-01-25 05:00:00 4.9 3 Sudeste 4 Sur 0 -- -- 83
2019-01-25 04:00:00 5.9 2 Sudeste 6 Sudeste 0 -- -- 78
2019-01-25 03:00:00 7.1 0 Calma 8 Sudeste 0 -- -- 78
2019-01-25 02:00:00 6.9 4 Sur 8 Sur 0 -- -- 78
2019-01-25 01:00:00 7.5 4 Sur 10 Sudoeste 0 -- -- 78
2019-01-25 00:00:00 7.3 3 Sur 7 Sudeste 0 -- -- 76
2019-01-24 23:00:00 8.3 4 Sudeste 7 Sudeste 0 -- -- 70
2019-01-24 22:00:00 10.8 0 Calma 13 Noroeste 0 -- -- 63
2019-01-24 21:00:00 12.1 8 Noroeste 28 Noroeste 0 -- -- 57
2019-01-24 20:00:00 12.3 9 Oeste 18 Oeste 0 -- -- 54
2019-01-24 19:00:00 14.4 13 Oeste 21 Oeste 0 -- -- 48
2019-01-24 18:00:00 16 11 Oeste 26 Noroeste 0 -- -- 44
2019-01-24 17:00:00 17 14 Noroeste 28 Noroeste 0 -- -- 42
2019-01-24 16:00:00 16.9 14 Oeste 36 Oeste 0 -- -- 42
2019-01-24 15:00:00 16.5 20 Oeste 33 Oeste 0 -- -- 44
2019-01-24 14:00:00 16 14 Noroeste 30 Oeste 0 -- -- 46
2019-01-24 13:00:00 14.4 18 Oeste 28 Oeste 0 -- -- 52
2019-01-24 12:00:00 13.3 16 Oeste 27 Noroeste 0 -- -- 58
2019-01-24 11:00:00 11.9 6 Oeste 22 Oeste 0 -- -- 66
2019-01-24 10:00:00 10.1 19 Oeste 28 Oeste 0 -- -- 73
2019-01-24 09:00:00 8.8 9 Oeste 26 Oeste 0 -- -- 75
2019-01-24 08:00:00 7.9 4 Sudoeste 33 Oeste 0 -- -- 76
2019-01-24 07:00:00 8.4 24 Oeste 48 Oeste 0 -- -- 72
2019-01-24 06:00:00 9.2 26 Oeste 39 Oeste 0 -- -- 72
2019-01-24 05:00:00 9.4 30 Oeste 49 Oeste 0 -- -- 71
2019-01-24 04:00:00 8.9 26 Oeste 40 Oeste 0 -- -- 74
2019-01-24 03:00:00 8.5 25 Oeste 39 Sudoeste 0 -- -- 78
2019-01-24 02:00:00 8.4 26 Sudoeste 35 Oeste 0 -- -- 77
2019-01-24 01:00:00 9 19 Oeste 26 Oeste 0 -- -- 77
2019-01-24 00:00:00 9 19 Oeste 26 Oeste 0 -- -- 78
2019-01-23 23:00:00 8.6 13 Sudoeste 31 Oeste 0 -- -- 76
2019-01-23 22:00:00 10 26 Oeste 39 Oeste 0 -- -- 70
2019-01-23 21:00:00 11 30 Oeste 41 Oeste 0 -- -- 60
2019-01-23 20:00:00 11.3 28 Oeste 37 Oeste 0 -- -- 55
2019-01-23 19:00:00 12 27 Oeste 37 Oeste 0 -- -- 52
2019-01-23 18:00:00 13.1 26 Oeste 41 Oeste 0 -- -- 48
2019-01-23 17:00:00 12.9 18 Oeste 34 Oeste 0 -- -- 48
2019-01-23 16:00:00 12.8 19 Oeste 37 Oeste 0 -- -- 48
2019-01-23 15:00:00 12.6 26 Oeste 42 Oeste 0 -- -- 51
2019-01-23 14:00:00 12.7 33 Oeste 48 Oeste 0 -- -- 55
2019-01-23 13:00:00 11.8 25 Oeste 42 Oeste 0 -- -- 57
2019-01-23 12:00:00 11 30 Oeste 40 Oeste 0 -- -- 63
2019-01-23 11:00:00 8.9 23 Oeste 31 Sudoeste 0 -- -- 73
2019-01-23 10:00:00 7.1 15 Sudoeste 31 Oeste 0 -- -- 84
2019-01-23 09:00:00 6.8 23 Oeste 36 Sudoeste 0 -- -- 85
2019-01-23 08:00:00 6.3 24 Oeste 37 Oeste 0 -- -- 83
2019-01-23 07:00:00 6.2 22 Oeste 33 Sudoeste 0 -- -- 83
2019-01-23 06:00:00 5.8 22 Oeste 33 Oeste 0 -- -- 82
2019-01-23 05:00:00 5.9 21 Oeste 31 Oeste 0 -- -- 81
2019-01-23 04:00:00 5.6 19 Oeste 30 Oeste 0 -- -- 78
2019-01-23 03:00:00 5.3 18 Oeste 30 Oeste 0 -- -- 78
2019-01-23 02:00:00 4.9 14 Sudoeste 26 Oeste 0 -- -- 81
2019-01-23 01:00:00 5.6 18 Oeste 26 Oeste 0 -- -- 83
2019-01-23 00:00:00 5.3 17 Oeste 30 Oeste 0 -- -- 85
2019-01-22 23:00:00 6.2 19 Oeste 31 Oeste 0 -- -- 86
2019-01-22 22:00:00 6.8 23 Sudoeste 34 Oeste 0 -- -- 87
2019-01-22 21:00:00 7.3 21 Sudoeste 33 Oeste 0 -- -- 86
2019-01-22 20:00:00 7.8 23 Sudoeste 32 Sudoeste 0 -- -- 80
2019-01-22 19:00:00 8.1 20 Sudoeste 35 Oeste 0 -- -- 75
2019-01-22 18:00:00 8.1 18 Sudoeste 32 Sudoeste 0.1 -- -- 70
2019-01-22 17:00:00 8.9 17 Sudoeste 30 Sudoeste 0 -- -- 60
2019-01-22 16:00:00 9 20 Oeste 33 Oeste 0 -- -- 57
2019-01-22 15:00:00 9.6 21 Oeste 40 Oeste 0 -- -- 53
2019-01-22 14:00:00 9.2 22 Oeste 39 Oeste 0 -- -- 53
2019-01-22 13:00:00 8.4 22 Oeste 35 Oeste 0 -- -- 59
2019-01-22 12:00:00 6 17 Oeste 25 Oeste 0 -- -- 72
2019-01-22 11:00:00 4.7 14 Oeste 22 Oeste 0 -- -- 77
2019-01-22 10:00:00 3.5 12 Oeste 19 Oeste 0 -- -- 81
2019-01-22 09:00:00 2.3 8 Sudoeste 15 Sudoeste 0 -- -- 78
2019-01-22 08:00:00 2.6 3 Sudoeste 8 Sudoeste 0 -- -- 75
2019-01-22 07:00:00 2.6 4 Sudeste 9 Sur 0 -- -- 74
2019-01-22 06:00:00 2.7 4 Sur 9 Sur 0 -- -- 74
2019-01-22 05:00:00 1.8 4 Sudeste 6 Sur 0 -- -- 75
2019-01-22 04:00:00 2 3 Sur 6 Sudeste 0 -- -- 75
2019-01-22 03:00:00 1.2 4 Sur 6 Sur 0 -- -- 75
2019-01-22 02:00:00 1.5 3 Sudeste 6 Sudeste 0 -- -- 73
2019-01-22 01:00:00 2.1 3 Sudeste 8 Sudoeste 0 -- -- 71
2019-01-22 00:00:00 2.5 4 Sur 10 Sudeste 0 -- -- 68
2019-01-21 23:00:00 3 3 Sur 8 Sudoeste 0 -- -- 67
2019-01-21 22:00:00 2.9 4 Sur 6 Sudoeste 0 -- -- 64
2019-01-21 21:00:00 4.3 3 Sur 4 Sur 0 -- -- 57
2019-01-21 20:00:00 6.2 3 Noroeste 9 Noroeste 0 -- -- 51
2019-01-21 19:00:00 7.6 0 Calma 8 Sudoeste 0 -- -- 48
2019-01-21 18:00:00 10.3 4 Oeste 12 Noroeste 0 -- -- 38
2019-01-21 17:00:00 11.6 6 Oeste 17 Oeste 0 -- -- 36
2019-01-21 16:00:00 11.6 8 Oeste 16 Oeste 0 -- -- 39
2019-01-21 15:00:00 11.4 7 Oeste 14 Sudoeste 0 -- -- 42
2019-01-21 14:00:00 10.9 3 Oeste 11 Sudeste 0 -- -- 43
2019-01-21 13:00:00 9.8 3 Oeste 9 Noroeste 0 -- -- 54
2019-01-21 12:00:00 7.6 2 Norte 9 Noroeste 0 -- -- 65
2019-01-21 11:00:00 5.8 6 Oeste 9 Oeste 0 -- -- 84
2019-01-21 10:00:00 3.3 2 Sudeste 5 Sudeste 0 -- -- 88
2019-01-21 09:00:00 0.8 0 Calma 3 Sudeste 0 -- -- 88
2019-01-21 08:00:00 0.2 0 Calma 5 Sur 0 -- -- 86
2019-01-21 07:00:00 0.7 3 Sudeste 5 Sudeste 0 -- -- 87
2019-01-21 06:00:00 1.3 3 Sur 4 Sur 0 -- -- 86
2019-01-21 05:00:00 1.5 0 Calma 5 Sudoeste 0 -- -- 86
2019-01-21 04:00:00 1.4 0 Calma 4 Sudoeste 0 -- -- 84
2019-01-21 03:00:00 2.4 0 Calma 3 Sur 0 -- -- 83
2019-01-21 02:00:00 2.6 3 Sudeste 5 Sudeste 0 -- -- 78
2019-01-21 01:00:00 3.8 0 Calma 7 Sudoeste 0 -- -- 74
2019-01-21 00:00:00 5.1 3 Sur 14 Noroeste 0 -- -- 69
2019-01-20 23:00:00 6 8 Noroeste 17 Oeste 0 -- -- 65
2019-01-20 22:00:00 6.8 9 Noroeste 17 Noroeste 0 -- -- 62
2019-01-20 21:00:00 7.3 11 Oeste 18 Noroeste 0 -- -- 59
2019-01-20 20:00:00 7.3 9 Oeste 17 Oeste 0 -- -- 52
2019-01-20 19:00:00 8.1 7 Oeste 15 Oeste 0 -- -- 48
2019-01-20 18:00:00 10.7 13 Noroeste 26 Noroeste 0 -- -- 40
2019-01-20 17:00:00 11.6 18 Noroeste 30 Noroeste 0 -- -- 39
2019-01-20 16:00:00 11.8 19 Noroeste 31 Noroeste 0 -- -- 40
2019-01-20 15:00:00 12.1 14 Noroeste 26 Oeste 0 -- -- 43
2019-01-20 14:00:00 11.2 11 Noroeste 22 Oeste 0 -- -- 48
2019-01-20 13:00:00 11.1 11 Noroeste 22 Noroeste 0 -- -- 49
2019-01-20 12:00:00 10.3 13 Noroeste 22 Noroeste 0 -- -- 58
2019-01-20 11:00:00 7.8 11 Noroeste 19 Noroeste 0 -- -- 84
2019-01-20 10:00:00 6.4 6 Noroeste 14 Noroeste 0 -- -- 89
2019-01-20 09:00:00 5.5 6 Norte 17 Noroeste 0 -- -- 89
2019-01-20 08:00:00 5.7 8 Noroeste 20 Oeste 0 -- -- 89
2019-01-20 07:00:00 6.6 15 Oeste 30 Oeste 0 -- -- 89
2019-01-20 06:00:00 7.6 18 Oeste 34 Oeste 0 -- -- 89
2019-01-20 05:00:00 8.7 22 Oeste 34 Oeste 0.1 -- -- 90
2019-01-20 04:00:00 9.3 17 Oeste 30 Oeste 0 -- -- 89
2019-01-20 03:00:00 9.4 14 Sudoeste 34 Sudoeste 0.3 -- -- 89
2019-01-20 02:00:00 9.4 13 Sudoeste 24 Sudoeste 5.9 -- -- 89
2019-01-20 01:00:00 9.5 15 Sudoeste 28 Sudoeste 1.2 -- -- 89
2019-01-20 00:00:00 9.3 16 Sudoeste 26 Sudoeste 0.1 -- -- 89
2019-01-19 23:00:00 8.4 8 Sur 21 Sudeste 0.5 -- -- 89
2019-01-19 22:00:00 8 9 Sur 27 Sur 0.4 -- -- 90
2019-01-19 21:00:00 7.2 11 Sur 27 Sudeste 0.2 -- -- 89
2019-01-19 20:00:00 7.3 19 Sudeste 31 Sudeste 0.2 -- -- 89
2019-01-19 19:00:00 6.7 13 Sudeste 31 Sudeste 0.1 -- -- 89
2019-01-19 18:00:00 6.5 12 Sudeste 29 Sudeste 0.3 -- -- 89
2019-01-19 17:00:00 6.2 19 Sudeste 32 Sudeste 0.3 -- -- 89
2019-01-19 16:00:00 6.3 14 Sudeste 29 Sudeste 0 -- -- 89
2019-01-19 15:00:00 6 17 Sudeste 28 Sudeste 0.2 -- -- 89
2019-01-19 14:00:00 5.9 12 Sudeste 26 Sur 0 -- -- 88
2019-01-19 13:00:00 5.9 10 Sur 23 Sudeste 0.1 -- -- 89
2019-01-19 12:00:00 5.7 6 Sur 15 Sur 0 -- -- 89
2019-01-19 11:00:00 4.8 8 Sudeste 13 Sudeste 0.4 -- -- 89
2019-01-19 10:00:00 3.9 3 Sudeste 11 Este 0 -- -- 89
2019-01-19 09:00:00 3.6 6 Este 13 Este 0 -- -- 89
2019-01-19 08:00:00 3.5 6 Este 10 Este 0 -- -- 89
2019-01-19 07:00:00 3.3 4 Sudeste 9 Sudeste 0 -- -- 89
2019-01-19 06:00:00 3.2 4 Sudeste 9 Sudeste 0 -- -- 89
2019-01-19 05:00:00 2.3 4 Sur 8 Sur 0 -- -- 88
2019-01-19 04:00:00 1.6 4 Sudeste 7 Sur 0 -- -- 87
2019-01-19 03:00:00 1 5 Sudeste 6 Sur 0 -- -- 86
2019-01-19 02:00:00 2.2 3 Sudeste 6 Sudeste 0 -- -- 83
2019-01-19 01:00:00 1.4 2 Sudeste 4 Este 0 -- -- 81
2019-01-19 00:00:00 3.2 2 Sudeste 6 Sudoeste 0 -- -- 78